createdAt,value
2022-09-10T00:02:01.689Z,3.90
2022-09-10T00:04:28.479Z,3.58
2022-09-10T00:06:55.640Z,4.45
2022-09-10T00:09:22.464Z,4.05
2022-09-10T00:11:49.178Z,4.28
2022-09-10T00:14:19.975Z,4.43
2022-09-10T00:16:46.992Z,3.58
2022-09-10T00:19:14.943Z,4.70
2022-09-10T00:21:41.750Z,4.38
2022-09-10T00:24:08.525Z,4.35
2022-09-10T00:26:39.497Z,4.68
2022-09-10T00:29:09.228Z,4.40
2022-09-10T00:31:37.007Z,3.90
2022-09-10T00:34:04.316Z,3.85
2022-09-10T00:36:36.062Z,4.05
2022-09-10T00:39:06.133Z,4.30
2022-09-10T00:41:33.936Z,4.00
2022-09-10T00:44:55.675Z,4.10
2022-09-10T00:47:27.145Z,4.03
2022-09-10T00:50:16.365Z,4.30
2022-09-10T00:52:44.218Z,4.63
2022-09-10T00:55:12.622Z,4.38
2022-09-10T00:57:39.968Z,4.50
2022-09-10T01:00:10.877Z,4.03
2022-09-10T01:02:37.939Z,4.78
2022-09-10T01:05:07.481Z,5.03
2022-09-10T01:07:33.962Z,4.40
2022-09-10T01:10:06.497Z,4.35
2022-09-10T01:12:48.079Z,4.97
2022-09-10T01:15:32.835Z,5.65
2022-09-10T01:18:03.699Z,4.75
2022-09-10T01:20:48.650Z,4.45
2022-09-10T01:23:33.882Z,4.88
2022-09-10T01:26:19.378Z,4.68
2022-09-10T01:28:55.702Z,4.75
2022-09-10T01:31:31.759Z,4.68
2022-09-10T01:34:12.012Z,4.30
2022-09-10T01:36:48.052Z,3.70
2022-09-10T01:39:18.745Z,4.18
2022-09-10T01:41:45.572Z,4.95
2022-09-10T01:44:47.416Z,4.20
2022-09-10T01:47:26.164Z,4.35
2022-09-10T01:50:24.228Z,4.35
2022-09-10T01:53:12.185Z,5.57
2022-09-10T01:55:59.184Z,4.53
2022-09-10T01:58:26.615Z,4.28
2022-09-10T02:01:09.417Z,4.97
2022-09-10T02:03:38.688Z,4.93
2022-09-10T02:06:09.475Z,5.35
2022-09-10T02:08:39.945Z,5.28
2022-09-10T02:11:12.090Z,5.22
2022-09-10T02:13:38.948Z,5.15
2022-09-10T02:16:09.228Z,5.07
2022-09-10T02:18:38.587Z,4.85
2022-09-10T02:21:07.147Z,5.22
2022-09-10T02:23:42.606Z,4.85
2022-09-10T02:26:09.526Z,4.93
2022-09-10T02:28:36.988Z,5.07
2022-09-10T02:31:03.527Z,5.35
2022-09-10T02:33:31.076Z,5.43
2022-09-10T02:35:58.474Z,4.47
2022-09-10T02:38:24.993Z,4.30
2022-09-10T02:40:51.449Z,4.70
2022-09-10T02:43:18.109Z,4.80
2022-09-10T02:45:44.941Z,5.63
2022-09-10T02:48:11.431Z,4.88
2022-09-10T02:50:37.955Z,4.95
2022-09-10T02:53:04.857Z,4.18
2022-09-10T02:55:32.142Z,5.28
2022-09-10T02:57:58.633Z,5.60
2022-09-10T03:00:25.153Z,4.82
2022-09-10T03:02:52.057Z,4.85
2022-09-10T03:07:44.901Z,4.13
2022-09-10T03:10:11.358Z,4.75
2022-09-10T03:12:39.178Z,5.07
2022-09-10T03:15:06.960Z,5.00
2022-09-10T03:17:33.420Z,4.97
2022-09-10T03:19:59.992Z,5.30
2022-09-10T03:22:26.540Z,4.70
2022-09-10T03:24:54.255Z,5.13
2022-09-10T03:27:20.881Z,4.65
2022-09-10T03:29:47.631Z,5.40
2022-09-10T03:32:14.130Z,4.57
2022-09-10T03:34:40.587Z,5.15
2022-09-10T03:37:07.131Z,5.20
2022-09-10T03:39:33.644Z,4.88
2022-09-10T03:42:00.142Z,4.35
2022-09-10T03:44:26.672Z,4.68
2022-09-10T03:46:53.195Z,4.63
2022-09-10T03:49:19.673Z,5.28
2022-09-10T03:51:46.790Z,5.13
2022-09-10T03:54:13.971Z,4.95
2022-09-10T03:56:40.605Z,4.57
2022-09-10T03:59:07.082Z,4.53
2022-09-10T04:01:33.709Z,3.83
2022-09-10T04:04:00.162Z,4.13
2022-09-10T04:06:26.743Z,4.20
2022-09-10T04:08:53.184Z,4.47
2022-09-10T04:11:20.732Z,4.22
2022-09-10T04:13:48.533Z,3.83
2022-09-10T04:16:16.490Z,3.90
2022-09-10T04:18:43.073Z,3.78
2022-09-10T04:21:09.820Z,3.40
2022-09-10T04:23:36.343Z,4.30
2022-09-10T04:26:12.030Z,4.40
2022-09-10T04:28:38.680Z,3.30
2022-09-10T04:31:05.211Z,3.60
2022-09-10T04:33:33.269Z,4.28
2022-09-10T04:36:01.044Z,3.97
2022-09-10T04:38:30.673Z,3.85
2022-09-10T04:40:58.528Z,3.40
2022-09-10T04:43:25.718Z,3.88
2022-09-10T04:45:53.445Z,2.92
2022-09-10T04:48:19.997Z,3.65
2022-09-10T04:51:05.356Z,3.28
2022-09-10T04:53:34.438Z,4.20
2022-09-10T04:56:01.105Z,3.90
2022-09-10T04:58:27.570Z,4.00
2022-09-10T05:00:55.941Z,3.58
2022-09-10T05:03:23.305Z,3.80
2022-09-10T05:05:51.063Z,3.80
2022-09-10T05:08:17.732Z,3.80
2022-09-10T05:10:45.405Z,4.00
2022-09-10T05:13:11.886Z,3.65
2022-09-10T05:15:40.301Z,4.43
2022-09-10T05:18:07.680Z,4.03
2022-09-10T05:20:35.753Z,4.72
2022-09-10T05:23:02.519Z,4.60
2022-09-10T05:25:28.990Z,4.10
2022-09-10T05:27:55.602Z,4.40
2022-09-10T05:30:22.124Z,4.20
2022-09-10T05:32:48.698Z,5.00
2022-09-10T05:35:15.278Z,4.28
2022-09-10T05:37:41.745Z,4.50
2022-09-10T05:40:13.307Z,4.25
2022-09-10T05:42:39.799Z,4.50
2022-09-10T05:45:07.054Z,4.30
2022-09-10T05:47:34.482Z,4.90
2022-09-10T05:50:00.965Z,5.00
2022-09-10T05:52:27.625Z,4.55
2022-09-10T05:54:56.512Z,3.85
2022-09-10T05:57:23.075Z,4.78
2022-09-10T05:59:49.569Z,4.32
2022-09-10T06:02:23.245Z,4.93
2022-09-10T06:04:50.521Z,5.05
2022-09-10T06:07:16.984Z,4.45
2022-09-10T06:09:43.616Z,4.93
2022-09-10T06:12:10.165Z,5.57
2022-09-10T06:14:36.833Z,5.25
2022-09-10T06:17:03.399Z,5.07
2022-09-10T06:19:30.407Z,4.55
2022-09-10T06:21:56.887Z,5.15
2022-09-10T06:24:24.538Z,4.80
2022-09-10T06:26:51.235Z,5.72
2022-09-10T06:29:20.881Z,5.13
2022-09-10T06:31:47.589Z,4.72
2022-09-10T06:34:14.266Z,5.15
2022-09-10T06:36:41.519Z,4.93
2022-09-10T06:39:07.995Z,5.00
2022-09-10T06:41:34.707Z,5.15
2022-09-10T06:44:01.298Z,4.95
2022-09-10T06:49:15.249Z,5.50
2022-09-10T06:51:42.526Z,4.40
2022-09-10T06:54:09.060Z,5.15
2022-09-10T06:56:35.569Z,4.65
2022-09-10T06:59:02.762Z,5.25
2022-09-10T07:01:29.945Z,5.95
2022-09-10T07:03:59.177Z,5.60
2022-09-10T07:08:57.087Z,5.07
2022-09-10T07:11:25.332Z,5.38
2022-09-10T07:13:53.838Z,5.37
2022-09-10T07:16:21.823Z,4.82
2022-09-10T07:18:54.529Z,5.63
2022-09-10T07:21:22.594Z,6.13
2022-09-10T07:23:50.116Z,7.40
2022-09-10T07:26:19.606Z,6.75
2022-09-10T07:28:46.326Z,6.85
2022-09-10T07:31:13.711Z,7.07
2022-09-10T07:33:40.698Z,7.32
2022-09-10T07:36:08.032Z,7.32
2022-09-10T07:38:34.905Z,6.38
2022-09-10T07:41:02.294Z,7.78
2022-09-10T07:43:29.573Z,5.97
2022-09-10T07:45:59.050Z,6.32
2022-09-10T07:48:28.456Z,6.13
2022-09-10T07:51:01.672Z,6.55
2022-09-10T07:53:28.230Z,6.47
2022-09-10T07:56:08.153Z,6.20
2022-09-10T07:58:36.174Z,6.28
2022-09-10T08:01:09.216Z,6.40
2022-09-10T08:03:35.783Z,6.35
2022-09-10T08:06:03.288Z,5.75
2022-09-10T08:08:34.164Z,5.50
2022-09-10T08:11:11.984Z,5.70
2022-09-10T08:13:45.112Z,6.07
2022-09-10T08:16:14.773Z,6.47
2022-09-10T08:18:43.089Z,5.45
2022-09-10T08:21:09.616Z,5.40
2022-09-10T08:23:37.303Z,5.57
2022-09-10T08:26:05.315Z,5.93
2022-09-10T08:28:32.061Z,4.47
2022-09-10T08:31:07.667Z,4.88
2022-09-10T08:33:36.057Z,5.40
2022-09-10T08:36:03.819Z,4.47
2022-09-10T08:38:39.802Z,4.97
2022-09-10T08:41:21.892Z,4.97
2022-09-10T08:43:59.074Z,4.85
2022-09-10T08:46:32.094Z,5.10
2022-09-10T08:49:27.900Z,3.70
2022-09-10T08:52:00.589Z,4.32
2022-09-10T08:54:34.642Z,4.15
2022-09-10T08:57:02.377Z,3.97
2022-09-10T08:59:34.298Z,4.22
2022-09-10T09:02:31.586Z,4.35
2022-09-10T09:05:16.217Z,4.47
2022-09-10T09:07:42.912Z,3.80
2022-09-10T09:10:21.497Z,3.88
2022-09-10T09:13:29.129Z,4.68
2022-09-10T09:16:07.208Z,4.25
2022-09-10T09:19:07.687Z,3.97
2022-09-10T09:21:45.760Z,4.40
2022-09-10T09:24:27.545Z,4.50
2022-09-10T09:27:01.904Z,3.95
2022-09-10T09:30:01.464Z,4.18
2022-09-10T09:32:33.142Z,4.45
2022-09-10T09:35:22.653Z,3.97
2022-09-10T09:38:03.804Z,4.43
2022-09-10T09:40:43.564Z,4.40
2022-09-10T09:43:23.715Z,4.25
2022-09-10T09:45:53.151Z,4.20
2022-09-10T09:48:21.582Z,4.03
2022-09-10T09:50:55.733Z,3.90
2022-09-10T09:53:25.313Z,3.92
2022-09-10T09:55:59.288Z,3.85
2022-09-10T09:58:26.458Z,4.45
2022-09-10T10:01:05.183Z,4.82
2022-09-10T10:03:35.473Z,4.00
2022-09-10T10:06:06.056Z,4.47
2022-09-10T10:08:42.686Z,4.25
2022-09-10T10:11:11.541Z,4.35
2022-09-10T10:13:40.860Z,5.05
2022-09-10T10:16:35.743Z,4.82
2022-09-10T10:19:02.812Z,4.18
2022-09-10T10:21:31.794Z,4.03
2022-09-10T10:23:58.422Z,4.05
2022-09-10T10:26:34.849Z,4.80
2022-09-10T10:29:06.475Z,4.88
2022-09-10T10:31:40.330Z,3.97
2022-09-10T10:34:09.557Z,4.53
2022-09-10T10:36:52.526Z,4.28
2022-09-10T10:39:21.951Z,4.07
2022-09-10T10:42:06.840Z,5.60
2022-09-10T10:45:24.343Z,5.05
2022-09-10T10:48:20.944Z,4.85
2022-09-10T10:51:29.106Z,4.45
2022-09-10T10:54:04.616Z,4.75
2022-09-10T10:56:52.974Z,5.25
2022-09-10T10:59:33.073Z,4.97
2022-09-10T11:02:20.883Z,3.95
2022-09-10T11:04:51.009Z,4.45
2022-09-10T11:07:24.026Z,4.72
2022-09-10T11:09:58.967Z,4.72
2022-09-10T11:12:34.029Z,4.10
2022-09-10T11:15:15.990Z,4.90
2022-09-10T11:18:22.070Z,4.22
2022-09-10T11:21:12.019Z,4.05
2022-09-10T11:23:51.638Z,4.60
2022-09-10T11:26:38.924Z,4.25
2022-09-10T11:29:16.836Z,4.43
2022-09-10T11:31:47.812Z,4.40
2022-09-10T11:34:37.471Z,3.90
2022-09-10T11:37:36.451Z,4.30
2022-09-10T11:42:40.155Z,4.03
2022-09-10T11:45:13.899Z,3.88
2022-09-10T11:47:50.293Z,3.33
2022-09-10T11:50:33.677Z,4.38
2022-09-10T11:53:02.420Z,4.28
2022-09-10T11:56:05.889Z,3.70
2022-09-10T11:59:14.379Z,3.58
2022-09-10T12:02:02.796Z,3.15
2022-09-10T12:04:39.810Z,2.95
2022-09-10T12:07:46.269Z,3.33
2022-09-10T12:10:40.765Z,3.38
2022-09-10T12:13:13.920Z,3.65
2022-09-10T12:15:41.068Z,3.38
2022-09-10T12:18:21.853Z,3.25
2022-09-10T12:21:28.006Z,4.20
2022-09-10T12:23:55.983Z,3.35
2022-09-10T12:26:23.560Z,3.08
2022-09-10T12:28:52.764Z,2.88
2022-09-10T12:31:21.620Z,2.63
2022-09-10T12:36:35.473Z,3.15
2022-09-10T12:39:20.406Z,3.55
2022-09-10T12:41:46.868Z,3.58
2022-09-10T12:44:25.373Z,3.40
2022-09-10T12:47:13.669Z,3.90
2022-09-10T12:49:55.549Z,3.58
2022-09-10T12:52:49.129Z,3.38
2022-09-10T12:55:43.372Z,3.63
2022-09-10T12:58:35.000Z,6.50
2022-09-10T13:01:10.612Z,6.70
2022-09-10T13:03:37.749Z,4.90
2022-09-10T13:06:07.066Z,10.00
2022-09-10T13:08:41.578Z,6.25
2022-09-10T13:11:22.464Z,5.45
2022-09-10T13:13:48.881Z,4.20
2022-09-10T13:16:38.394Z,4.55
2022-09-10T13:19:14.088Z,4.20
2022-09-10T13:21:40.541Z,3.70
2022-09-10T13:24:35.815Z,4.25
2022-09-10T13:27:08.079Z,3.35
2022-09-10T13:29:41.393Z,3.53
2022-09-10T13:32:16.760Z,3.33
2022-09-10T13:35:08.518Z,2.80
2022-09-10T13:37:53.774Z,3.17
2022-09-10T13:40:48.900Z,3.05
2022-09-10T13:43:22.517Z,2.95
2022-09-10T13:45:58.873Z,2.70
2022-09-10T13:48:28.954Z,2.97
2022-09-10T13:51:14.666Z,3.35
2022-09-10T13:53:44.390Z,2.38
2022-09-10T13:56:22.836Z,2.45
2022-09-10T13:58:52.165Z,3.15
2022-09-10T14:01:18.863Z,2.92
2022-09-10T14:03:45.481Z,2.97
2022-09-10T14:06:23.873Z,2.90
2022-09-10T14:09:02.188Z,2.53
2022-09-10T14:11:35.833Z,2.65
2022-09-10T14:14:10.394Z,2.83
2022-09-10T14:16:42.044Z,2.30
2022-09-10T14:19:17.456Z,2.28
2022-09-10T14:21:48.841Z,2.70
2022-09-10T14:24:31.856Z,2.50
2022-09-10T14:27:16.925Z,2.53
2022-09-10T14:29:43.674Z,1.70
2022-09-10T14:32:31.675Z,2.35
2022-09-10T14:34:59.429Z,2.50
2022-09-10T14:37:25.842Z,2.70
2022-09-10T14:39:52.391Z,2.22
2022-09-10T14:42:35.538Z,2.55
2022-09-10T14:45:03.140Z,2.55
2022-09-10T14:47:35.847Z,2.35
2022-09-10T14:50:31.562Z,2.33
2022-09-10T14:52:58.775Z,2.80
2022-09-10T14:55:28.325Z,2.25
2022-09-10T14:57:56.490Z,1.98
2022-09-10T15:00:23.917Z,1.27
2022-09-10T15:02:53.347Z,1.67
2022-09-10T15:05:20.323Z,2.10
2022-09-10T15:07:47.509Z,1.90
2022-09-10T15:10:14.147Z,1.35
2022-09-10T15:12:43.295Z,1.40
2022-09-10T15:17:44.175Z,1.52
2022-09-10T15:20:17.102Z,2.30
2022-09-10T15:22:44.308Z,1.55
2022-09-10T15:25:46.519Z,1.83
2022-09-10T15:28:13.040Z,1.45
2022-09-10T15:30:39.660Z,1.73
2022-09-10T15:33:07.232Z,1.90
2022-09-10T15:35:33.875Z,2.40
2022-09-10T15:38:03.578Z,3.50
2022-09-10T15:40:30.110Z,2.42
2022-09-10T15:42:57.826Z,2.30
2022-09-10T15:45:24.449Z,1.98
2022-09-10T15:47:51.062Z,1.65
2022-09-10T15:50:17.777Z,1.50
2022-09-10T15:52:45.071Z,1.30
2022-09-10T15:55:12.516Z,1.58
2022-09-10T15:57:40.396Z,1.20
2022-09-10T16:00:07.685Z,1.67
2022-09-10T16:02:34.400Z,1.50
2022-09-10T16:05:03.512Z,1.30
2022-09-10T16:09:58.773Z,1.10
2022-09-10T16:12:28.404Z,1.45
2022-09-10T16:14:55.780Z,1.30
2022-09-10T16:17:22.452Z,1.00
2022-09-10T16:19:49.738Z,1.23
2022-09-10T16:22:20.418Z,1.15
2022-09-10T16:24:47.213Z,1.30
2022-09-10T16:27:13.760Z,1.02
2022-09-10T16:29:43.555Z,1.33
2022-09-10T16:32:10.831Z,1.70
2022-09-10T16:34:38.596Z,1.52
2022-09-10T16:37:05.187Z,2.35
2022-09-10T16:39:31.759Z,1.80
2022-09-10T16:41:58.222Z,1.55
2022-09-10T16:44:24.692Z,2.10
2022-09-10T16:46:51.196Z,1.50
2022-09-10T16:49:19.768Z,1.98
2022-09-10T16:51:49.001Z,1.83
2022-09-10T16:54:19.400Z,1.77
2022-09-10T16:56:48.760Z,2.03
2022-09-10T16:59:21.393Z,1.60
2022-09-10T17:01:49.619Z,1.88
2022-09-10T17:04:25.947Z,3.33
2022-09-10T17:06:55.447Z,4.32
2022-09-10T17:09:22.688Z,4.13
2022-09-10T17:11:49.270Z,3.95
2022-09-10T17:14:15.726Z,4.43
2022-09-10T17:16:43.549Z,4.80
2022-09-10T17:19:16.786Z,2.47
2022-09-10T17:21:47.324Z,2.05
2022-09-10T17:24:13.785Z,2.63
2022-09-10T17:26:41.540Z,8.20
2022-09-10T17:29:11.237Z,8.60
2022-09-10T17:31:37.740Z,8.15
2022-09-10T17:47:02.878Z,6.90
2022-09-10T17:49:29.352Z,8.00
2022-09-10T17:51:55.888Z,10.77
2022-09-10T17:54:23.441Z,11.82
2022-09-10T17:56:49.987Z,12.50
2022-09-10T17:59:16.555Z,10.15
2022-09-10T18:01:43.244Z,9.20
2022-09-10T18:04:15.732Z,7.55
2022-09-10T18:06:42.240Z,5.72
2022-09-10T18:09:08.750Z,4.45
2022-09-10T18:11:38.282Z,3.65
2022-09-10T18:14:05.082Z,3.13
2022-09-10T18:16:33.694Z,3.38
2022-09-10T18:19:03.098Z,5.03
2022-09-10T18:21:35.076Z,5.75
2022-09-10T18:24:07.611Z,4.63
2022-09-10T18:26:39.505Z,4.45
2022-09-10T18:29:07.808Z,3.95
2022-09-10T18:31:37.592Z,3.50
2022-09-10T18:34:06.652Z,9.40
2022-09-10T18:36:34.082Z,8.27
2022-09-10T18:39:05.986Z,4.07
2022-09-10T18:41:36.478Z,4.95
2022-09-10T18:44:05.473Z,4.38
2022-09-10T18:46:32.878Z,2.92
2022-09-10T18:49:00.105Z,3.30
2022-09-10T18:51:28.909Z,3.47
2022-09-10T18:53:58.347Z,3.42
2022-09-10T18:56:28.020Z,3.22
2022-09-10T18:58:57.119Z,2.50
2022-09-10T19:03:51.039Z,2.05
2022-09-10T19:06:23.889Z,2.60
2022-09-10T19:08:56.117Z,2.60
2022-09-10T19:11:24.695Z,2.10
2022-09-10T19:13:53.644Z,2.00
2022-09-10T19:16:22.111Z,2.67
2022-09-10T19:18:56.287Z,2.38
2022-09-10T19:21:24.119Z,2.88
2022-09-10T19:23:55.177Z,2.92
2022-09-10T19:26:25.218Z,2.35
2022-09-10T19:28:52.358Z,2.28
2022-09-10T19:31:20.788Z,2.45
2022-09-10T19:33:47.878Z,2.78
2022-09-10T19:36:17.724Z,2.63
2022-09-10T19:38:44.488Z,3.33
2022-09-10T19:41:19.091Z,20.23
2022-09-10T19:43:47.289Z,10.35
2022-09-10T19:46:15.349Z,6.38
2022-09-10T19:48:43.464Z,4.38
2022-09-10T19:51:20.255Z,5.60
2022-09-10T19:53:48.306Z,5.82
2022-09-10T19:56:36.377Z,6.70
2022-09-10T19:59:08.564Z,7.45
2022-09-10T20:01:38.225Z,7.65
2022-09-10T20:04:07.350Z,7.68
2022-09-10T20:06:34.741Z,7.72
2022-09-10T20:09:02.425Z,8.60
2022-09-10T20:11:32.361Z,7.22
2022-09-10T20:14:08.039Z,7.40
2022-09-10T20:16:39.791Z,8.25
2022-09-10T20:19:07.211Z,8.23
2022-09-10T20:21:34.882Z,8.98
2022-09-10T20:24:01.510Z,7.80
2022-09-10T20:26:31.559Z,7.88
2022-09-10T20:29:03.854Z,6.95
2022-09-10T20:31:32.580Z,9.00
2022-09-10T20:34:02.098Z,7.30
2022-09-10T20:36:29.122Z,12.23
2022-09-10T20:38:56.112Z,12.40
2022-09-10T20:41:23.483Z,5.40
2022-09-10T20:43:53.467Z,6.18
2022-09-10T20:46:22.275Z,10.98
2022-09-10T20:48:50.241Z,14.18
2022-09-10T20:51:21.222Z,7.88
2022-09-10T20:53:48.212Z,5.03
2022-09-10T20:56:17.882Z,6.45
2022-09-10T20:58:45.389Z,6.47
2022-09-10T21:01:13.344Z,4.53
2022-09-10T21:03:43.749Z,6.15
2022-09-10T21:06:11.829Z,7.95
2022-09-10T21:08:40.633Z,7.32
2022-09-10T21:11:09.823Z,8.45
2022-09-10T21:16:07.984Z,6.38
2022-09-10T21:18:35.334Z,6.35
2022-09-10T21:21:13.683Z,7.10
2022-09-10T21:23:44.976Z,5.63
2022-09-10T21:26:13.008Z,5.22
2022-09-10T21:28:40.672Z,4.68
2022-09-10T21:31:09.129Z,4.63
2022-09-10T21:33:36.496Z,4.90
2022-09-10T21:36:06.426Z,3.90
2022-09-10T21:38:37.980Z,5.30
2022-09-10T21:41:11.896Z,4.00
2022-09-10T21:43:43.016Z,4.75
2022-09-10T21:46:10.502Z,6.40
2022-09-10T21:48:37.274Z,6.00
2022-09-10T21:51:06.391Z,6.90
2022-09-10T21:53:34.592Z,7.22
2022-09-10T21:56:03.333Z,6.33
2022-09-10T21:58:32.992Z,8.73
2022-09-10T22:00:59.799Z,7.28
2022-09-10T22:03:31.513Z,8.77
2022-09-10T22:06:05.990Z,7.32
2022-09-10T22:08:33.375Z,7.40
2022-09-10T22:11:08.892Z,7.43
2022-09-10T22:13:37.939Z,10.20
2022-09-10T22:16:07.539Z,8.23
2022-09-10T22:18:34.244Z,7.80
2022-09-10T22:21:00.919Z,8.48
2022-09-10T22:23:29.465Z,9.00
2022-09-10T22:26:03.147Z,8.63
2022-09-10T22:28:34.297Z,6.10
2022-09-10T22:31:19.105Z,5.63
2022-09-10T22:33:50.533Z,5.70
2022-09-10T22:36:26.658Z,6.30
2022-09-10T22:39:01.587Z,6.22
2022-09-10T22:41:29.787Z,4.72
2022-09-10T22:43:57.094Z,4.17
2022-09-10T22:46:24.112Z,4.03
2022-09-10T22:48:50.926Z,4.13
2022-09-10T22:51:19.552Z,4.43
2022-09-10T22:53:46.770Z,4.65
2022-09-10T22:56:14.328Z,4.32
2022-09-10T22:58:41.382Z,3.47
2022-09-10T23:01:10.846Z,3.92
2022-09-10T23:03:37.925Z,3.88
2022-09-10T23:06:16.866Z,3.92
2022-09-10T23:08:45.533Z,4.38
2022-09-10T23:11:21.112Z,3.53
2022-09-10T23:13:50.360Z,3.78
2022-09-10T23:16:22.980Z,3.50
2022-09-10T23:18:51.604Z,2.90
2022-09-10T23:21:19.412Z,3.25
2022-09-10T23:23:48.210Z,2.97
2022-09-10T23:26:15.797Z,2.65
2022-09-10T23:28:42.459Z,3.90
2022-09-10T23:31:17.738Z,2.40
2022-09-10T23:33:54.426Z,3.30
2022-09-10T23:36:21.604Z,2.78
2022-09-10T23:38:48.220Z,2.80
2022-09-10T23:41:17.590Z,3.45
2022-09-10T23:43:45.466Z,3.58
2022-09-10T23:46:12.727Z,2.28
2022-09-10T23:48:39.785Z,2.78
2022-09-10T23:51:06.650Z,2.42
2022-09-10T23:53:33.419Z,2.65
2022-09-10T23:56:02.830Z,2.30
2022-09-10T23:58:29.947Z,2.38
